Time;durP1;ratioP1;P1;durP2;ratioP2;P2;SDS_P1;SDS_P2;PMS_P1;PMS_P2;Temp;Humidity;BMP_temperature;BMP_pressure;BME280_temperature;BME280_humidity;BME280_pressure;Samples;Min_cycle;Max_cycle;Signal;HPM_P1;HPM_P2
2022/03/09 00:01:19;;;;;;;;;;;2.50;49.30;;;0.88;50.33;101172.06;5065836;28;19981;-79
2022/03/09 00:03:46;;;;;;;;;;;3.70;49.80;;;0.82;50.54;101173.63;5063476;28;19929;-78
2022/03/09 00:06:13;;;;;;;;;;;1.80;49.10;;;0.75;50.93;101176.88;5064424;28;19924;-78
2022/03/09 00:08:40;;;;;;;;;;;1.60;49.60;;;0.56;51.46;101186.72;5081194;28;20405;-78
2022/03/09 00:11:07;;;;;;;;;;;2.90;50.60;;;0.53;52.30;101189.19;5064356;28;19931;-78
2022/03/09 00:13:34;;;;;;;;;;;4.40;52.00;;;0.49;52.77;101189.06;5062736;28;19924;-78
2022/03/09 00:16:01;;;;;;;;;;;1.30;51.10;;;0.42;54.07;101188.84;5063545;28;19995;-78
2022/03/09 00:18:29;;;;;;;;;;;4.70;53.50;;;0.48;55.39;101185.59;5060119;28;19924;-78
2022/03/09 00:20:56;;;;;;;;;;;1.30;52.70;;;0.58;55.35;101185.88;5063268;28;19932;-78
2022/03/09 00:23:23;;;;;;;;;;;1.20;52.50;;;0.60;56.04;101192.84;5078656;28;19925;-78
2022/03/09 00:25:49;;;;;;;;;;;2.10;53.80;;;0.38;56.06;101186.13;5079084;28;19928;-78
2022/03/09 00:28:16;;;;;;;;;;;2.30;53.80;;;0.33;55.65;101182.50;5062069;28;19932;-79
2022/03/09 00:30:43;;;;;;;;;;;3.10;54.20;;;0.28;57.23;101190.13;5047855;28;19991;-78
2022/03/09 00:33:10;;;;;;;;;;;1.20;53.70;;;0.22;57.54;101193.41;5079688;28;19929;-79
2022/03/09 00:35:38;;;;;;;;;;;2.30;54.80;;;0.11;56.62;101190.47;5079157;28;19956;-79
2022/03/09 00:38:07;;;;;;;;;;;1.20;54.30;;;0.10;56.59;101190.44;5063497;28;20530;-79
2022/03/09 00:40:34;;;;;;;;;;;2.80;55.10;;;-0.02;56.79;101189.22;5063722;28;19928;-78
2022/03/09 00:43:01;;;;;;;;;;;1.00;54.70;;;-0.17;59.00;101186.13;5062046;28;19924;-78
2022/03/09 00:45:28;;;;;;;;;;;1.20;55.90;;;-0.23;63.00;101191.09;5059649;28;19925;-78
2022/03/09 00:47:55;;;;;;;;;;;1.60;58.10;;;-0.37;64.21;101185.44;5062693;28;19968;-78
2022/03/09 00:50:22;;;;;;;;;;;-0.90;57.30;;;-0.50;63.29;101184.16;5077977;28;20027;-78
2022/03/09 00:52:49;;;;;;;;;;;0.70;57.90;;;-0.43;64.02;101176.66;5077054;28;19928;-78
2022/03/09 00:55:16;;;;;;;;;;;0.90;58.80;;;-0.25;62.44;101178.09;5058503;28;19931;-78
2022/03/09 00:57:43;;;;;;;;;;;0.50;58.50;;;-0.17;66.09;101170.59;5075660;28;20358;-77
2022/03/09 01:00:10;;;;;;;;;;;1.50;61.00;;;-0.03;64.68;101173.63;5040893;28;19928;-78
2022/03/09 01:02:41;;;;;;;;;;;0.40;59.80;;;0.09;63.60;101178.34;5056802;28;20364;-78
2022/03/09 01:05:09;;;;;;;;;;;0.70;59.70;;;0.21;61.93;101183.88;5061929;28;19924;-78
2022/03/09 01:07:36;;;;;;;;;;;0.60;59.20;;;0.22;60.49;101180.47;5062206;28;20025;-78
2022/03/09 01:10:04;;;;;;;;;;;0.70;59.80;;;0.25;60.48;101182.28;5062648;28;20592;-79
2022/03/09 01:12:31;;;;;;;;;;;0.90;59.30;;;0.03;59.53;101178.13;5077877;28;19935;-78
2022/03/09 01:14:58;;;;;;;;;;;0.80;59.20;;;-0.02;60.42;101173.69;5062410;28;19996;-78
2022/03/09 01:17:26;;;;;;;;;;;3.10;59.90;;;0.10;61.19;101175.78;5062167;28;20479;-78
2022/03/09 01:19:53;;;;;;;;;;;0.70;59.50;;;0.21;60.34;101188.19;5061829;28;19924;-78
2022/03/09 01:22:20;;;;;;;;;;;0.80;59.40;;;0.24;60.39;101181.41;5077639;28;19934;-78
2022/03/09 01:24:47;;;;;;;;;;;0.80;60.30;;;0.30;58.62;101175.53;5077233;28;20411;-78
2022/03/09 01:27:14;;;;;;;;;;;2.60;60.00;;;0.33;59.89;101174.75;5044178;28;19929;-78
2022/03/09 01:29:41;;;;;;;;;;;1.00;59.40;;;0.23;60.83;101171.00;5061006;28;19931;-78
2022/03/09 01:32:08;;;;;;;;;;;1.00;60.20;;;0.24;59.91;101160.72;5042714;28;19932;-78
2022/03/09 01:34:35;;;;;;;;;;;1.60;60.80;;;0.22;60.33;101159.75;5078635;28;19979;-78
2022/03/09 01:37:03;;;;;;;;;;;0.90;60.50;;;0.31;60.42;101155.72;5045340;28;19931;-78
2022/03/09 01:39:30;;;;;;;;;;;1.00;60.20;;;0.36;57.50;101156.72;5040661;28;19929;-77
2022/03/09 01:41:57;;;;;;;;;;;0.80;59.50;;;0.23;58.47;101171.88;5041995;28;19925;-78
2022/03/09 01:44:25;;;;;;;;;;;0.90;60.10;;;0.10;58.89;101167.16;5059918;28;19932;-78
2022/03/09 01:46:54;;;;;;;;;;;1.00;60.30;;;0.03;57.71;101170.38;5046497;28;20362;-78
2022/03/09 01:49:22;;;;;;;;;;;0.80;58.40;;;-0.12;56.77;101166.44;5061672;28;20316;-77
2022/03/09 01:51:51;;;;;;;;;;;3.00;59.80;;;-0.33;56.98;101159.75;5060970;28;19932;-78
2022/03/09 01:54:19;;;;;;;;;;;0.70;58.70;;;-0.43;57.74;101162.84;5045921;28;19967;-78
2022/03/09 01:56:47;;;;;;;;;;;0.90;60.00;;;-0.48;58.21;101162.69;5046667;28;19925;-78
2022/03/09 01:59:15;;;;;;;;;;;2.40;61.20;;;-0.61;58.79;101158.81;5060733;28;19955;-78
2022/03/09 02:01:44;;;;;;;;;;;0.40;60.20;;;-0.78;59.10;101155.66;5059295;28;19924;-78
2022/03/09 02:04:12;;;;;;;;;;;2.60;62.30;;;-0.86;59.85;101154.47;5042594;28;19986;-77
2022/03/09 02:06:39;;;;;;;;;;;0.40;62.40;;;-1.00;60.62;101156.59;5059712;28;20289;-78
2022/03/09 02:11:54;;;;;;;;;;;0.10;65.90;;;-0.81;64.32;101154.66;5075639;28;20435;-78
2022/03/09 02:14:42;;;;;;;;;;;-2.10;65.40;;;-1.01;62.29;101152.25;5075499;28;19928;-80
2022/03/09 02:17:17;;;;;;;;;;;0.00;64.00;;;-1.17;61.96;101151.69;5059059;28;19947;-78
2022/03/09 02:19:47;;;;;;;;;;;0.10;65.40;;;-1.06;65.84;101149.50;5060215;28;20019;-77
2022/03/09 02:22:20;;;;;;;;;;;-0.10;67.80;;;-0.99;66.99;101158.34;5041412;28;20471;-77
2022/03/09 02:24:48;;;;;;;;;;;0.10;67.10;;;-0.93;66.21;101160.28;5075178;28;20297;-77
2022/03/09 02:27:16;;;;;;;;;;;-0.10;69.50;;;-0.84;67.34;101160.59;5042348;28;19928;-78
2022/03/09 02:29:43;;;;;;;;;;;0.00;69.70;;;-0.94;65.16;101154.22;5075867;28;19924;-78
2022/03/09 02:32:10;;;;;;;;;;;0.00;68.70;;;-0.92;65.68;101155.13;5059642;28;20554;-78
2022/03/09 02:34:37;;;;;;;;;;;-0.10;69.20;;;-1.00;65.26;101159.16;5060122;28;19932;-77
2022/03/09 02:37:07;;;;;;;;;;;0.10;68.70;;;-1.20;66.06;101155.84;5061236;28;19928;-79
2022/03/09 02:39:34;;;;;;;;;;;-0.20;68.20;;;-1.14;69.20;101166.41;5061166;28;19932;-77
2022/03/09 02:42:01;;;;;;;;;;;1.40;71.40;;;-1.06;70.33;101169.25;5077120;28;20398;-78
2022/03/09 02:44:28;;;;;;;;;;;-0.20;71.90;;;-1.12;68.83;101156.13;5058901;28;19924;-78
2022/03/09 02:46:55;;;;;;;;;;;0.10;71.80;;;-1.20;69.59;101161.88;5078257;28;20146;-77
2022/03/09 02:49:22;;;;;;;;;;;-0.10;71.30;;;-1.05;72.61;101163.25;5071828;28;19951;-79
2022/03/09 02:51:49;;;;;;;;;;;-0.30;72.70;;;-0.95;73.11;101148.97;5054693;28;19947;-79
2022/03/09 02:54:16;;;;;;;;;;;0.20;73.30;;;-0.83;70.43;101152.00;5053708;28;19928;-78
2022/03/09 02:56:44;;;;;;;;;;;-0.30;72.40;;;-0.79;70.75;101142.66;5054601;28;19959;-78
2022/03/09 02:59:11;;;;;;;;;;;0.00;73.20;;;-0.73;70.99;101141.16;5054308;28;19929;-78
2022/03/09 03:01:38;;;;;;;;;;;-0.20;73.60;;;-0.62;71.82;101138.94;5070973;28;19928;-78
2022/03/09 03:04:06;;;;;;;;;;;0.00;74.70;;;-0.41;71.01;101158.59;5070169;28;19982;-79
2022/03/09 03:06:33;;;;;;;;;;;0.90;75.50;;;-0.38;71.51;101157.81;5037887;28;19986;-79
2022/03/09 03:09:00;;;;;;;;;;;0.30;75.90;;;-0.51;68.98;101156.53;5054313;28;20397;-79
2022/03/09 03:11:27;;;;;;;;;;;3.20;75.90;;;-0.44;66.86;101164.56;5071018;28;19925;-79
2022/03/09 03:13:53;;;;;;;;;;;0.20;72.20;;;-0.63;67.01;101164.72;5053240;28;19981;-79
2022/03/09 03:16:20;;;;;;;;;;;0.50;72.30;;;-0.69;66.13;101169.69;5038054;28;19924;-78
2022/03/09 03:18:47;;;;;;;;;;;0.30;71.20;;;-0.84;67.33;101168.34;5054215;28;19928;-79
2022/03/09 03:21:14;;;;;;;;;;;0.40;72.00;;;-0.83;68.69;101172.66;5057786;28;19936;-77
2022/03/09 03:23:41;;;;;;;;;;;0.00;72.50;;;-0.94;68.99;101179.16;5060728;28;19935;-77
2022/03/09 03:26:08;;;;;;;;;;;1.60;73.50;;;-1.23;68.12;101176.41;5061522;28;19988;-78
2022/03/09 03:28:35;;;;;;;;;;;-0.20;70.80;;;-1.35;69.54;101187.13;5078838;28;19928;-78
2022/03/09 03:31:04;;;;;;;;;;;-0.20;72.80;;;-1.55;70.04;101179.50;5062416;28;19924;-78
2022/03/09 03:33:31;;;;;;;;;;;-0.50;73.30;;;-1.51;74.64;101181.38;5062612;28;20035;-78
2022/03/09 03:35:58;;;;;;;;;;;-0.40;76.00;;;-1.54;73.58;101180.41;5062393;28;20292;-78
2022/03/09 03:38:26;;;;;;;;;;;-0.30;76.70;;;-1.83;72.61;101177.56;5063181;28;19932;-78
2022/03/09 03:40:53;;;;;;;;;;;1.10;75.90;;;-1.98;75.39;101193.28;5063223;28;19924;-78
2022/03/09 03:43:20;;;;;;;;;;;-0.50;76.30;;;-2.01;76.60;101178.59;5078701;28;19966;-78
2022/03/09 03:45:47;;;;;;;;;;;-0.80;77.40;;;-1.83;77.68;101181.00;5061030;28;20003;-78
2022/03/09 03:48:14;;;;;;;;;;;1.20;80.50;;;-1.81;79.33;101181.94;5078544;28;20377;-78
2022/03/09 03:50:41;;;;;;;;;;;-0.90;80.80;;;-1.87;76.33;101177.44;5042435;28;19928;-78
2022/03/09 03:53:08;;;;;;;;;;;-0.80;79.60;;;-1.82;75.71;101175.03;5076113;28;19932;-78
2022/03/09 03:55:35;;;;;;;;;;;-0.80;79.00;;;-1.77;77.25;101172.63;5062309;28;19928;-79
2022/03/09 03:58:02;;;;;;;;;;;-0.80;80.20;;;-1.98;75.02;101178.69;5064602;28;20487;-78
2022/03/09 04:00:29;;;;;;;;;;;-0.70;78.20;;;-2.12;73.22;101182.41;5064349;28;19996;-78
2022/03/09 04:03:00;;;;;;;;;;;-0.80;77.30;;;-2.01;78.80;101182.03;5064057;28;19964;-78
2022/03/09 04:05:28;;;;;;;;;;;-1.10;80.60;;;-1.91;81.31;101185.00;5079201;28;19924;-78
2022/03/09 04:07:56;;;;;;;;;;;-1.20;82.20;;;-1.69;84.93;101191.88;5080842;28;19929;-78
2022/03/09 04:10:23;;;;;;;;;;;1.10;86.10;;;-1.61;79.29;101187.88;5063064;28;19925;-78
2022/03/09 04:12:50;;;;;;;;;;;-1.10;83.20;;;-1.79;77.51;101185.50;5078909;28;19928;-78
2022/03/09 04:15:17;;;;;;;;;;;0.70;82.10;;;-2.07;73.74;101194.69;5078807;28;19942;-77
2022/03/09 04:17:45;;;;;;;;;;;1.10;79.10;;;-2.09;81.67;101193.75;5039580;28;19924;-78
2022/03/09 04:20:14;;;;;;;;;;;-0.90;82.10;;;-2.24;81.02;101196.56;5040059;28;19928;-78
2022/03/09 04:22:42;;;;;;;;;;;-1.20;82.60;;;-2.32;77.50;101198.81;5034332;28;19928;-77
2022/03/09 04:25:09;;;;;;;;;;;-1.10;80.90;;;-2.33;81.30;101196.19;5071364;28;19925;-78
2022/03/09 04:27:37;;;;;;;;;;;-1.00;83.10;;;-2.37;81.09;101200.31;5055458;28;19982;-77
2022/03/09 04:30:07;;;;;;;;;;;-1.50;83.00;;;-2.40;83.02;101201.88;5070224;28;19929;-78
2022/03/09 04:32:35;;;;;;;;;;;-1.20;84.00;;;-2.62;79.92;101200.97;5068904;28;20750;-77
2022/03/09 04:35:27;;;;;;;;;;;-1.20;82.40;;;-2.50;82.53;101203.19;5072323;28;19943;-79
2022/03/09 04:38:13;;;;;;;;;;;-2.30;83.80;;;-2.46;88.98;101195.66;5065719;28;19929;-79
2022/03/09 04:40:49;;;;;;;;;;;-1.30;88.00;;;-2.45;91.44;101192.25;5072695;28;19924;-79
2022/03/09 04:43:32;;;;;;;;;;;-1.60;87.20;;;-2.42;90.91;101199.22;5070937;28;20448;-79
2022/03/09 04:46:54;;;;;;;;;;;-1.50;89.10;;;-2.34;89.24;101196.97;5090451;28;19935;-79
2022/03/09 04:49:22;;;;;;;;;;;-1.30;86.60;;;-2.35;90.80;101192.63;5095075;28;20480;-79
2022/03/09 04:51:53;;;;;;;;;;;-1.50;89.30;;;-2.33;91.69;101186.75;5062969;28;19928;-79
2022/03/09 04:54:52;;;;;;;;;;;-1.30;89.10;;;-2.31;92.25;101179.94;5078513;28;19931;-80
2022/03/09 04:57:20;;;;;;;;;;;-1.40;87.80;;;-2.22;90.92;101181.16;5095164;28;19928;-79
2022/03/09 05:00:14;;;;;;;;;;;1.30;90.00;;;-2.20;94.67;101184.69;5064395;28;19969;-79
2022/03/09 05:02:43;;;;;;;;;;;-1.00;88.20;;;-2.18;92.82;101195.94;5093716;28;19939;-78
2022/03/09 05:05:10;;;;;;;;;;;-0.20;90.30;;;-2.21;90.01;101188.06;5059528;28;20371;-78
2022/03/09 05:07:54;;;;;;;;;;;-1.10;88.70;;;-2.36;88.56;101196.94;5057789;28;20059;-76
2022/03/09 05:10:21;;;;;;;;;;;-1.40;88.40;;;-2.48;90.58;101199.88;5061222;28;19931;-77
2022/03/09 05:12:48;;;;;;;;;;;-1.20;88.80;;;-2.50;93.33;101200.63;5074851;28;20312;-78
2022/03/09 05:15:16;;;;;;;;;;;-1.40;90.10;;;-2.42;93.31;101210.44;5074771;28;19982;-78
2022/03/09 05:17:47;;;;;;;;;;;-1.20;90.20;;;-2.65;90.67;101212.03;5027984;28;19966;-78
2022/03/09 05:20:15;;;;;;;;;;;-1.40;89.20;;;-2.90;88.22;101215.22;5058726;28;19931;-80
2022/03/09 05:22:42;;;;;;;;;;;-1.40;87.80;;;-2.91;91.61;101208.28;5039032;28;20360;-77
2022/03/09 05:25:09;;;;;;;;;;;-1.90;89.80;;;-3.09;94.85;101214.38;5038439;28;20905;-75
2022/03/09 05:27:37;;;;;;;;;;;-1.80;90.80;;;-3.05;97.18;101208.56;5070435;28;19933;-77
2022/03/09 05:30:04;;;;;;;;;;;-1.90;91.10;;;-3.20;97.84;101218.16;5070960;28;19933;-79
2022/03/09 05:32:33;;;;;;;;;;;-1.70;91.70;;;-3.18;100.00;101222.56;5063822;28;19924;-82
2022/03/09 05:35:04;;;;;;;;;;;-2.00;92.10;;;-3.10;99.70;101215.19;5045581;28;19928;-79
2022/03/09 05:37:42;;;;;;;;;;;-1.70;91.70;;;-3.30;96.32;101222.88;5075810;28;20028;-80
2022/03/09 05:40:10;;;;;;;;;;;-1.80;91.50;;;-3.34;97.58;101232.97;5073087;28;19932;-79
2022/03/09 05:42:43;;;;;;;;;;;-0.70;92.20;;;-3.40;97.42;101231.00;5057592;28;20328;-78
2022/03/09 05:45:17;;;;;;;;;;;-0.10;92.20;;;-3.38;100.00;101233.63;5074699;28;19959;-79
2022/03/09 05:47:48;;;;;;;;;;;-2.00;92.80;;;-3.28;100.00;101236.72;5056511;28;20023;-79
2022/03/09 05:50:16;;;;;;;;;;;-1.10;93.80;;;-3.15;100.00;101248.47;5072935;28;19929;-79
2022/03/09 05:52:44;;;;;;;;;;;-2.20;95.00;;;-3.17;100.00;101255.22;5072280;28;20007;-78
2022/03/09 05:55:11;;;;;;;;;;;-2.20;94.40;;;-3.38;100.00;101259.34;5072727;28;19928;-79
2022/03/09 05:57:38;;;;;;;;;;;-2.20;93.80;;;-3.40;100.00;101260.97;5057621;28;19935;-78
2022/03/09 06:00:06;;;;;;;;;;;-2.40;93.00;;;-3.58;100.00;101275.63;5074463;28;19928;-79
2022/03/09 06:02:39;;;;;;;;;;;-2.20;92.50;;;-3.49;100.00;101272.63;5058568;28;19928;-79
2022/03/09 06:05:07;;;;;;;;;;;-2.30;94.60;;;-3.63;100.00;101287.38;5058285;28;19934;-79
2022/03/09 06:07:35;;;;;;;;;;;-2.40;93.10;;;-3.59;100.00;101278.13;5074820;28;19936;-79
2022/03/09 06:10:02;;;;;;;;;;;-2.40;94.50;;;-3.43;100.00;101296.06;5057591;28;20419;-79
2022/03/09 06:12:29;;;;;;;;;;;-0.80;95.30;;;-3.42;100.00;101290.09;5041258;28;19928;-79
2022/03/09 06:14:56;;;;;;;;;;;-2.10;94.80;;;-3.49;100.00;101287.16;5073834;28;19934;-78
2022/03/09 06:17:29;;;;;;;;;;;-2.20;94.80;;;-3.28;100.00;101298.50;5078671;28;19971;-78
2022/03/09 06:19:56;;;;;;;;;;;0.40;95.80;;;-3.23;100.00;101296.13;5076016;28;19938;-78
2022/03/09 06:22:23;;;;;;;;;;;-2.40;95.20;;;-3.23;100.00;101302.97;5060374;28;19924;-78
2022/03/09 06:24:52;;;;;;;;;;;-2.10;94.80;;;-3.35;100.00;101308.44;5077115;28;20439;-78
2022/03/09 06:27:19;;;;;;;;;;;-2.30;95.00;;;-3.49;100.00;101311.22;5077585;28;19987;-79
2022/03/09 06:29:46;;;;;;;;;;;-2.10;94.20;;;-3.51;100.00;101315.41;5060717;28;19924;-79
2022/03/09 06:32:13;;;;;;;;;;;-2.20;94.50;;;-3.42;100.00;101310.69;5061328;28;19925;-79
2022/03/09 06:34:40;;;;;;;;;;;-2.10;94.60;;;-3.30;100.00;101309.53;5060989;28;19984;-81
2022/03/09 06:37:07;;;;;;;;;;;-2.40;94.90;;;-3.09;100.00;101311.34;5056803;28;20316;-78
2022/03/09 06:39:34;;;;;;;;;;;-2.20;95.20;;;-3.17;100.00;101311.88;5042913;28;19996;-79
2022/03/09 06:42:01;;;;;;;;;;;-2.30;94.70;;;-3.24;100.00;101317.53;5077136;28;19940;-79
2022/03/09 06:44:28;;;;;;;;;;;-2.10;94.60;;;-3.29;100.00;101325.00;5039971;28;20027;-79
2022/03/09 06:46:56;;;;;;;;;;;-1.80;93.90;;;-3.11;100.00;101310.38;5057275;28;19935;-79
2022/03/09 06:49:24;;;;;;;;;;;-1.90;94.60;;;-2.91;100.00;101313.91;5057049;28;20325;-80
2022/03/09 06:51:50;;;;;;;;;;;-2.00;95.30;;;-2.78;100.00;101308.50;5059477;28;19935;-79
2022/03/09 06:54:18;;;;;;;;;;;-1.20;95.40;;;-2.65;100.00;101311.63;5041145;28;19925;-78
2022/03/09 06:56:47;;;;;;;;;;;-1.70;95.10;;;-2.53;100.00;101309.59;5056980;28;20416;-79
2022/03/09 06:59:16;;;;;;;;;;;-1.70;94.80;;;-2.39;98.27;101309.31;5057912;28;19964;-78
2022/03/09 07:01:43;;;;;;;;;;;-1.80;93.60;;;-2.25;97.55;101297.91;5041003;28;20425;-79
2022/03/09 07:04:11;;;;;;;;;;;-1.40;93.30;;;-2.15;100.00;101307.84;5041315;28;19924;-79
2022/03/09 07:06:38;;;;;;;;;;;-1.30;94.10;;;-2.06;96.13;101307.34;5089089;28;19963;-78
2022/03/09 07:09:05;;;;;;;;;;;0.30;93.60;;;-1.93;95.72;101313.03;5065735;28;19928;-75
2022/03/09 07:11:36;;;;;;;;;;;-1.10;92.80;;;-1.89;98.22;101317.50;5039714;28;19959;-79
2022/03/09 07:14:03;;;;;;;;;;;0.20;94.10;;;-1.78;95.58;101320.53;5073531;28;19966;-77
2022/03/09 07:16:29;;;;;;;;;;;-1.10;93.10;;;-1.80;95.04;101323.03;5071277;28;19929;-79
2022/03/09 07:18:57;;;;;;;;;;;-1.10;93.00;;;-1.73;95.08;101322.47;5069110;28;19929;-78
2022/03/09 07:21:24;;;;;;;;;;;-0.90;92.90;;;-1.59;93.68;101323.03;5069003;28;20011;-78
2022/03/09 07:23:55;;;;;;;;;;;0.30;92.80;;;-1.48;93.70;101320.03;5055087;28;20393;-78
2022/03/09 07:26:22;;;;;;;;;;;0.30;93.20;;;-1.27;94.53;101335.50;5065711;28;20310;-78
2022/03/09 07:28:49;;;;;;;;;;;-0.50;93.00;;;-1.20;93.52;101327.16;5053029;28;19928;-78
2022/03/09 07:31:16;;;;;;;;;;;2.20;93.40;;;-1.05;94.26;101336.34;5054033;28;19925;-78
2022/03/09 07:33:43;;;;;;;;;;;-0.60;92.70;;;-0.94;91.12;101334.16;5035284;28;19924;-77
2022/03/09 07:36:10;;;;;;;;;;;-0.20;92.60;;;-0.82;91.47;101341.53;5050847;28;20420;-78
2022/03/09 07:38:43;;;;;;;;;;;-0.20;92.20;;;-0.72;86.97;101341.03;5049356;28;19925;-77
2022/03/09 07:41:29;;;;;;;;;;;0.00;91.40;;;-0.63;84.09;101346.56;5036588;28;19928;-77
2022/03/09 07:44:00;;;;;;;;;;;0.00;90.70;;;-0.52;82.71;101348.69;5034951;28;19960;-77
2022/03/09 07:46:27;;;;;;;;;;;0.00;90.50;;;-0.38;85.36;101339.75;5035803;28;20023;-77
2022/03/09 07:48:54;;;;;;;;;;;0.00;91.10;;;-0.29;82.66;101344.38;5074079;28;19928;-77
2022/03/09 07:51:21;;;;;;;;;;;1.50;90.80;;;-0.15;81.35;101345.75;5074206;28;20054;-78
2022/03/09 07:53:48;;;;;;;;;;;0.30;90.20;;;-0.08;79.89;101348.53;5073466;28;19924;-78
2022/03/09 07:56:15;;;;;;;;;;;0.50;89.70;;;0.06;81.46;101352.50;5075581;28;19928;-77
2022/03/09 07:58:42;;;;;;;;;;;-1.00;89.80;;;0.14;78.68;101348.44;5061688;28;19971;-78
2022/03/09 08:01:09;;;;;;;;;;;0.40;89.10;;;0.22;77.55;101347.84;5094901;28;19925;-79
2022/03/09 08:03:36;;;;;;;;;;;0.90;88.20;;;0.30;75.22;101353.28;5068811;28;20553;-78
2022/03/09 08:06:06;;;;;;;;;;;0.70;86.80;;;0.42;80.38;101353.72;5056992;28;19985;-79
2022/03/09 08:08:35;;;;;;;;;;;3.70;90.10;;;0.54;79.86;101354.09;5039870;28;19964;-79
2022/03/09 08:11:02;;;;;;;;;;;0.80;89.50;;;0.65;77.77;101367.41;5056140;28;20015;-78
2022/03/09 08:13:29;;;;;;;;;;;1.10;88.80;;;0.78;76.49;101365.19;5039529;28;19987;-77
2022/03/09 08:15:56;;;;;;;;;;;1.20;88.00;;;0.87;76.39;101362.91;5058650;28;19925;-79
2022/03/09 08:18:23;;;;;;;;;;;0.20;88.10;;;0.98;75.02;101358.97;5039990;28;19936;-78
2022/03/09 08:20:50;;;;;;;;;;;1.10;87.30;;;1.06;74.13;101366.09;5040475;28;19929;-79
2022/03/09 08:23:18;;;;;;;;;;;3.40;88.00;;;1.17;73.18;101367.31;5041153;28;19986;-80
2022/03/09 08:25:45;;;;;;;;;;;1.60;86.70;;;1.28;72.72;101359.84;5076949;28;19950;-81
2022/03/09 08:28:12;;;;;;;;;;;3.20;87.30;;;1.38;71.54;101364.50;5043859;28;19924;-82
2022/03/09 08:30:40;;;;;;;;;;;1.70;85.90;;;1.49;69.98;101359.63;5044446;28;20393;-81
2022/03/09 08:33:09;;;;;;;;;;;3.30;87.50;;;1.60;69.12;101362.50;5054912;28;20282;-81
2022/03/09 08:35:36;;;;;;;;;;;1.80;84.70;;;1.69;68.65;101355.00;5054400;28;19935;-81
2022/03/09 08:38:04;;;;;;;;;;;4.40;86.30;;;1.83;65.99;101357.97;5055820;28;19925;-80
2022/03/09 08:40:31;;;;;;;;;;;2.10;83.30;;;1.97;64.71;101358.38;5062166;28;19939;-80
2022/03/09 08:42:58;;;;;;;;;;;2.20;82.80;;;2.12;63.84;101346.66;5079763;28;19947;-80
2022/03/09 08:45:25;;;;;;;;;;;2.40;82.30;;;2.23;63.65;101352.13;5066867;28;19929;-80
2022/03/09 08:47:52;;;;;;;;;;;2.80;82.10;;;2.29;62.26;101344.47;5069688;28;19960;-80
2022/03/09 08:50:19;;;;;;;;;;;4.10;82.10;;;2.43;61.45;101357.84;5055873;28;19956;-80
2022/03/09 08:53:06;;;;;;;;;;;2.60;80.20;;;2.57;59.83;101357.28;5068154;28;19929;-78
2022/03/09 08:55:33;;;;;;;;;;;2.90;79.30;;;2.68;58.86;101358.44;5078372;28;20309;-79
2022/03/09 08:58:00;;;;;;;;;;;3.10;78.90;;;2.77;58.45;101348.28;5039107;28;20347;-80
2022/03/09 09:00:28;;;;;;;;;;;4.50;79.50;;;2.96;57.10;101359.09;5057782;28;19933;-80
2022/03/09 09:02:55;;;;;;;;;;;3.10;77.10;;;3.04;56.13;101357.53;5055672;28;19928;-81
2022/03/09 09:05:25;;;;;;;;;;;5.00;77.20;;;3.25;54.79;101353.69;5055061;28;19966;-80
2022/03/09 09:07:52;;;;;;;;;;;3.40;74.80;;;3.33;54.28;101364.25;5049973;28;19925;-80
2022/03/09 09:10:19;;;;;;;;;;;3.60;73.60;;;3.47;53.03;101360.22;5058763;28;19936;-80
2022/03/09 09:12:50;;;;;;;;;;;2.50;71.50;;;3.65;51.86;101357.09;5047361;28;19939;-79
2022/03/09 09:15:17;;;;;;;;;;;3.90;70.50;;;3.79;51.79;101360.00;5042063;28;19928;-80
2022/03/09 09:17:44;;;;;;;;;;;3.60;69.20;;;3.86;51.27;101360.13;5076106;28;19966;-80
2022/03/09 09:20:31;;;;;;;;;;;4.20;69.00;;;4.00;51.08;101355.19;5073852;28;19925;-79
2022/03/09 09:22:59;;;;;;;;;;;5.30;69.00;;;4.15;50.67;101347.66;5067847;28;19974;-80
2022/03/09 09:25:34;;;;;;;;;;;4.50;67.80;;;4.16;50.40;101345.94;5048705;28;20421;-80
2022/03/09 09:28:01;;;;;;;;;;;4.90;67.60;;;4.19;50.29;101339.06;5031696;28;19970;-81
2022/03/09 09:30:30;;;;;;;;;;;4.50;67.00;;;4.36;49.63;101341.06;5053080;28;19931;-82
2022/03/09 09:32:59;;;;;;;;;;;4.70;66.20;;;4.38;50.01;101334.16;4999204;28;20251;-81
2022/03/09 09:35:43;;;;;;;;;;;4.60;66.10;;;4.57;49.58;101339.66;5030067;28;19928;-82
2022/03/09 09:38:31;;;;;;;;;;;4.90;65.70;;;4.78;49.48;101333.94;4999425;28;19948;-81
2022/03/09 09:40:58;;;;;;;;;;;4.70;65.60;;;4.96;48.95;101338.56;4997911;28;19964;-80
2022/03/09 09:43:25;;;;;;;;;;;5.20;65.30;;;4.93;48.34;101333.31;4991047;28;19948;-79
2022/03/09 09:45:53;;;;;;;;;;;5.20;63.50;;;4.96;48.40;101325.50;5015615;28;19968;-77
2022/03/09 09:48:21;;;;;;;;;;;5.30;63.40;;;5.03;47.84;101322.13;4998459;28;19959;-80
2022/03/09 09:50:54;;;;;;;;;;;5.30;62.60;;;5.10;48.02;101325.69;5010386;28;19933;-80
2022/03/09 09:53:25;;;;;;;;;;;5.40;62.30;;;5.20;47.82;101324.97;5030011;28;19930;-79
2022/03/09 09:55:52;;;;;;;;;;;5.40;62.40;;;5.32;46.79;101328.63;5021718;28;19964;-78
2022/03/09 09:58:20;;;;;;;;;;;5.50;61.40;;;5.27;47.06;101319.84;5033459;28;20005;-79
2022/03/09 10:00:47;;;;;;;;;;;5.50;61.10;;;5.41;46.74;101326.13;5014772;28;19969;-76
2022/03/09 10:03:14;;;;;;;;;;;5.70;61.30;;;5.57;46.63;101324.59;5012863;28;20015;-75
2022/03/09 10:05:41;;;;;;;;;;;5.80;60.40;;;5.62;46.11;101322.88;5029870;28;19929;-77
2022/03/09 10:08:16;;;;;;;;;;;5.80;59.40;;;5.66;45.83;101327.28;5013266;28;19928;-78
2022/03/09 10:11:03;;;;;;;;;;;6.20;59.40;;;5.78;45.93;101320.47;5013169;28;19976;-78
2022/03/09 10:13:35;;;;;;;;;;;6.00;59.10;;;5.90;44.78;101310.16;5012342;28;20290;-77
2022/03/09 10:16:20;;;;;;;;;;;6.10;58.30;;;6.06;44.33;101312.94;5013304;28;19925;-77
2022/03/09 10:19:00;;;;;;;;;;;6.30;57.30;;;6.16;43.97;101316.53;5025900;28;20358;-77
2022/03/09 10:21:47;;;;;;;;;;;6.60;57.10;;;6.14;43.83;101318.25;5011663;28;19953;-78
2022/03/09 10:24:14;;;;;;;;;;;6.40;56.80;;;6.04;43.01;101314.69;5013493;28;19930;-77
2022/03/09 10:27:00;;;;;;;;;;;6.40;55.60;;;6.14;42.42;101323.47;5012700;28;19970;-77
2022/03/09 10:29:28;;;;;;;;;;;6.40;54.50;;;6.19;42.00;101316.53;5018325;28;19936;-79
2022/03/09 10:32:01;;;;;;;;;;;6.30;54.10;;;6.18;41.03;101320.03;5021898;28;19933;-78
2022/03/09 10:34:29;;;;;;;;;;;6.40;53.10;;;6.33;41.93;101317.53;5013508;28;19963;-78
2022/03/09 10:37:02;;;;;;;;;;;6.50;53.70;;;6.45;40.59;101327.22;5013996;28;20507;-78
2022/03/09 10:39:34;;;;;;;;;;;6.50;52.50;;;6.52;40.30;101322.94;5030629;28;20044;-78
2022/03/09 10:42:24;;;;;;;;;;;6.70;51.60;;;6.62;39.37;101322.16;4997758;28;20008;-79
2022/03/09 10:44:52;;;;;;;;;;;6.70;50.90;;;6.73;39.28;101322.22;4999187;28;19932;-78
2022/03/09 10:47:29;;;;;;;;;;;6.80;50.20;;;6.81;38.65;101323.16;5011226;28;19961;-77
2022/03/09 10:50:08;;;;;;;;;;;7.00;50.00;;;7.00;38.69;101312.81;5011354;28;19929;-78
2022/03/09 10:52:58;;;;;;;;;;;7.00;50.00;;;7.04;38.46;101317.19;5012772;28;19929;-78
2022/03/09 10:55:29;;;;;;;;;;;7.10;49.40;;;7.14;37.96;101314.63;5013665;28;19932;-78
2022/03/09 10:58:16;;;;;;;;;;;7.20;49.00;;;7.29;38.21;101312.09;5011892;28;19925;-77
2022/03/09 11:00:54;;;;;;;;;;;7.40;49.00;;;7.41;38.34;101311.28;5011282;28;20024;-78
2022/03/09 11:03:24;;;;;;;;;;;7.50;48.80;;;7.57;38.17;101303.47;5027486;28;19933;-78
2022/03/09 11:05:58;;;;;;;;;;;7.60;48.80;;;7.62;37.53;101307.88;5009854;28;19926;-79
2022/03/09 11:08:34;;;;;;;;;;;7.80;48.40;;;7.69;37.32;101293.03;5012992;28;19935;-79
2022/03/09 11:11:02;;;;;;;;;;;7.80;47.90;;;7.84;38.17;101300.06;4994716;28;19976;-78
2022/03/09 11:13:31;;;;;;;;;;;7.90;48.70;;;7.97;37.49;101303.59;5010963;28;19930;-77
2022/03/09 11:15:59;;;;;;;;;;;8.00;48.30;;;8.08;38.08;101296.59;4994544;28;19926;-79
2022/03/09 11:18:28;;;;;;;;;;;8.10;48.50;;;8.28;37.53;101294.88;5017974;28;19925;-80
2022/03/09 11:21:01;;;;;;;;;;;8.30;48.40;;;8.48;37.95;101298.34;5014872;28;19984;-79
2022/03/09 11:23:30;;;;;;;;;;;8.40;48.30;;;8.57;37.46;101294.03;4993506;28;19929;-78
2022/03/09 11:25:56;;;;;;;;;;;8.50;48.10;;;8.72;36.58;101301.00;5013806;28;20334;-77
2022/03/09 11:28:27;;;;;;;;;;;8.70;47.50;;;8.76;36.86;101289.66;5014723;28;19925;-78
2022/03/09 11:30:58;;;;;;;;;;;8.80;47.40;;;8.75;37.24;101283.50;5011832;28;20015;-78